sensor_id;sensor_type;location;lat;lon;timestamp;temperature;humidity
10431;DHT22;5262;59.958;17.726;2023-02-11T00:01:37;0.30;99.90
10431;DHT22;5262;59.958;17.726;2023-02-11T00:04:04;0.30;99.90
10431;DHT22;5262;59.958;17.726;2023-02-11T00:06:31;0.40;99.90
10431;DHT22;5262;59.958;17.726;2023-02-11T00:08:57;0.40;99.90
10431;DHT22;5262;59.958;17.726;2023-02-11T00:11:24;0.30;99.90
10431;DHT22;5262;59.958;17.726;2023-02-11T00:13:55;0.40;99.90
10431;DHT22;5262;59.958;17.726;2023-02-11T00:16:20;0.40;99.90
10431;DHT22;5262;59.958;17.726;2023-02-11T00:18:47;0.40;99.90
10431;DHT22;5262;59.958;17.726;2023-02-11T00:21:16;0.40;99.90
10431;DHT22;5262;59.958;17.726;2023-02-11T00:23:43;0.40;99.90
10431;DHT22;5262;59.958;17.726;2023-02-11T00:28:37;0.50;99.90
10431;DHT22;5262;59.958;17.726;2023-02-11T00:31:03;0.40;99.90
10431;DHT22;5262;59.958;17.726;2023-02-11T00:33:28;0.50;99.90
10431;DHT22;5262;59.958;17.726;2023-02-11T00:35:54;0.40;99.90
10431;DHT22;5262;59.958;17.726;2023-02-11T00:38:20;0.50;99.90
10431;DHT22;5262;59.958;17.726;2023-02-11T00:40:45;0.50;99.90
10431;DHT22;5262;59.958;17.726;2023-02-11T00:43:11;0.50;99.90
10431;DHT22;5262;59.958;17.726;2023-02-11T00:45:37;0.50;99.90
10431;DHT22;5262;59.958;17.726;2023-02-11T00:48:02;0.50;99.90
10431;DHT22;5262;59.958;17.726;2023-02-11T00:50:28;0.50;99.90
10431;DHT22;5262;59.958;17.726;2023-02-11T00:52:53;0.50;99.90
10431;DHT22;5262;59.958;17.726;2023-02-11T00:55:19;0.50;99.90
10431;DHT22;5262;59.958;17.726;2023-02-11T00:57:45;0.50;99.90
10431;DHT22;5262;59.958;17.726;2023-02-11T01:00:12;0.60;99.90
10431;DHT22;5262;59.958;17.726;2023-02-11T01:02:38;0.60;99.90
10431;DHT22;5262;59.958;17.726;2023-02-11T01:05:04;0.60;99.90
10431;DHT22;5262;59.958;17.726;2023-02-11T01:07:30;0.60;99.90
10431;DHT22;5262;59.958;17.726;2023-02-11T01:09:56;0.60;99.90
10431;DHT22;5262;59.958;17.726;2023-02-11T01:12:22;0.60;99.90
10431;DHT22;5262;59.958;17.726;2023-02-11T01:14:48;0.70;99.90
10431;DHT22;5262;59.958;17.726;2023-02-11T01:17:13;0.70;99.90
10431;DHT22;5262;59.958;17.726;2023-02-11T01:19:39;0.70;99.90
10431;DHT22;5262;59.958;17.726;2023-02-11T01:22:04;0.70;99.90
10431;DHT22;5262;59.958;17.726;2023-02-11T01:24:30;0.70;99.90
10431;DHT22;5262;59.958;17.726;2023-02-11T01:26:56;0.70;99.90
10431;DHT22;5262;59.958;17.726;2023-02-11T01:29:21;0.70;99.90
10431;DHT22;5262;59.958;17.726;2023-02-11T01:31:47;0.70;99.90
10431;DHT22;5262;59.958;17.726;2023-02-11T01:34:13;0.70;99.90
10431;DHT22;5262;59.958;17.726;2023-02-11T01:36:39;0.70;99.90
10431;DHT22;5262;59.958;17.726;2023-02-11T01:39:05;0.70;99.90
10431;DHT22;5262;59.958;17.726;2023-02-11T01:41:33;0.70;99.90
10431;DHT22;5262;59.958;17.726;2023-02-11T01:46:47;0.70;99.90
10431;DHT22;5262;59.958;17.726;2023-02-11T01:49:17;0.60;99.90
10431;DHT22;5262;59.958;17.726;2023-02-11T01:51:50;0.60;99.90
10431;DHT22;5262;59.958;17.726;2023-02-11T01:54:21;0.60;99.90
10431;DHT22;5262;59.958;17.726;2023-02-11T01:57:06;0.60;99.90
10431;DHT22;5262;59.958;17.726;2023-02-11T02:00:07;0.60;99.90
10431;DHT22;5262;59.958;17.726;2023-02-11T02:03:01;0.60;99.90
10431;DHT22;5262;59.958;17.726;2023-02-11T02:08:15;0.60;99.90
10431;DHT22;5262;59.958;17.726;2023-02-11T02:10:45;0.50;99.90
10431;DHT22;5262;59.958;17.726;2023-02-11T02:13:12;0.50;99.90
10431;DHT22;5262;59.958;17.726;2023-02-11T02:15:40;0.50;99.90
10431;DHT22;5262;59.958;17.726;2023-02-11T02:21:09;0.40;99.90
10431;DHT22;5262;59.958;17.726;2023-02-11T02:26:37;0.40;99.90
10431;DHT22;5262;59.958;17.726;2023-02-11T02:32:34;0.40;99.90
10431;DHT22;5262;59.958;17.726;2023-02-11T02:35:18;0.40;99.90
10431;DHT22;5262;59.958;17.726;2023-02-11T02:41:09;0.40;99.90
10431;DHT22;5262;59.958;17.726;2023-02-11T02:43:39;0.40;99.90
10431;DHT22;5262;59.958;17.726;2023-02-11T02:46:14;0.30;99.90
10431;DHT22;5262;59.958;17.726;2023-02-11T02:48:40;0.30;99.90
10431;DHT22;5262;59.958;17.726;2023-02-11T02:56:43;0.30;99.90
10431;DHT22;5262;59.958;17.726;2023-02-11T03:02:34;0.30;99.90
10431;DHT22;5262;59.958;17.726;2023-02-11T03:05:33;0.30;99.90
10431;DHT22;5262;59.958;17.726;2023-02-11T03:08:11;0.30;99.90
10431;DHT22;5262;59.958;17.726;2023-02-11T03:10:48;0.30;99.90
10431;DHT22;5262;59.958;17.726;2023-02-11T03:13:16;0.30;99.90
10431;DHT22;5262;59.958;17.726;2023-02-11T03:15:48;0.30;99.90
10431;DHT22;5262;59.958;17.726;2023-02-11T03:18:17;0.20;99.90
10431;DHT22;5262;59.958;17.726;2023-02-11T03:20:46;0.20;99.90
10431;DHT22;5262;59.958;17.726;2023-02-11T03:23:36;0.20;99.90
10431;DHT22;5262;59.958;17.726;2023-02-11T03:29:07;0.10;99.90
10431;DHT22;5262;59.958;17.726;2023-02-11T03:34:29;0.00;99.90
10431;DHT22;5262;59.958;17.726;2023-02-11T03:37:04;-0.10;99.90
10431;DHT22;5262;59.958;17.726;2023-02-11T03:39:39;-0.10;99.90
10431;DHT22;5262;59.958;17.726;2023-02-11T03:42:06;-0.10;99.90
10431;DHT22;5262;59.958;17.726;2023-02-11T03:44:40;-0.20;99.90
10431;DHT22;5262;59.958;17.726;2023-02-11T03:47:09;-0.20;99.90
10431;DHT22;5262;59.958;17.726;2023-02-11T03:49:38;-0.20;99.90
10431;DHT22;5262;59.958;17.726;2023-02-11T03:52:05;-0.30;99.90
10431;DHT22;5262;59.958;17.726;2023-02-11T03:54:33;-0.30;99.90
10431;DHT22;5262;59.958;17.726;2023-02-11T03:57:00;-0.40;99.90
10431;DHT22;5262;59.958;17.726;2023-02-11T03:59:26;-0.40;99.90
10431;DHT22;5262;59.958;17.726;2023-02-11T04:01:52;-0.50;99.90
10431;DHT22;5262;59.958;17.726;2023-02-11T04:04:18;-0.60;99.90
10431;DHT22;5262;59.958;17.726;2023-02-11T04:06:44;-0.60;99.90
10431;DHT22;5262;59.958;17.726;2023-02-11T04:09:10;-0.70;99.90
10431;DHT22;5262;59.958;17.726;2023-02-11T04:11:36;-0.80;99.90
10431;DHT22;5262;59.958;17.726;2023-02-11T04:14:07;-0.90;99.90
10431;DHT22;5262;59.958;17.726;2023-02-11T04:16:33;-0.90;99.90
10431;DHT22;5262;59.958;17.726;2023-02-11T04:18:58;-1.00;99.90
10431;DHT22;5262;59.958;17.726;2023-02-11T04:21:25;-1.10;99.90
10431;DHT22;5262;59.958;17.726;2023-02-11T04:23:50;-1.10;99.90
10431;DHT22;5262;59.958;17.726;2023-02-11T04:26:16;-1.20;99.90
10431;DHT22;5262;59.958;17.726;2023-02-11T04:28:41;-1.20;99.90
10431;DHT22;5262;59.958;17.726;2023-02-11T04:31:07;-1.20;99.90
10431;DHT22;5262;59.958;17.726;2023-02-11T04:33:33;-1.20;99.90
10431;DHT22;5262;59.958;17.726;2023-02-11T04:35:58;-1.30;99.90
10431;DHT22;5262;59.958;17.726;2023-02-11T04:38:24;-1.30;99.90
10431;DHT22;5262;59.958;17.726;2023-02-11T04:40:50;-1.40;99.90
10431;DHT22;5262;59.958;17.726;2023-02-11T04:43:15;-1.40;99.90
10431;DHT22;5262;59.958;17.726;2023-02-11T04:45:41;-1.50;99.90
10431;DHT22;5262;59.958;17.726;2023-02-11T04:48:07;-1.50;99.90
10431;DHT22;5262;59.958;17.726;2023-02-11T04:50:33;-1.50;99.90
10431;DHT22;5262;59.958;17.726;2023-02-11T04:52:58;-1.60;99.90
10431;DHT22;5262;59.958;17.726;2023-02-11T04:55:24;-1.60;99.90
10431;DHT22;5262;59.958;17.726;2023-02-11T04:57:50;-1.60;99.90
10431;DHT22;5262;59.958;17.726;2023-02-11T05:00:16;-1.60;99.90
10431;DHT22;5262;59.958;17.726;2023-02-11T05:02:41;-1.60;99.90
10431;DHT22;5262;59.958;17.726;2023-02-11T05:05:07;-1.70;99.90
10431;DHT22;5262;59.958;17.726;2023-02-11T05:07:33;-1.70;99.90
10431;DHT22;5262;59.958;17.726;2023-02-11T05:09:58;-1.70;99.90
10431;DHT22;5262;59.958;17.726;2023-02-11T05:12:24;-1.70;99.90
10431;DHT22;5262;59.958;17.726;2023-02-11T05:14:50;-1.70;99.90
10431;DHT22;5262;59.958;17.726;2023-02-11T05:17:15;-1.70;99.90
10431;DHT22;5262;59.958;17.726;2023-02-11T05:19:41;-1.70;99.90
10431;DHT22;5262;59.958;17.726;2023-02-11T05:22:07;-1.70;99.90
10431;DHT22;5262;59.958;17.726;2023-02-11T05:24:33;-1.80;99.90
10431;DHT22;5262;59.958;17.726;2023-02-11T05:26:59;-1.80;99.90
10431;DHT22;5262;59.958;17.726;2023-02-11T05:29:25;-1.80;99.90
10431;DHT22;5262;59.958;17.726;2023-02-11T05:31:51;-1.80;99.90
10431;DHT22;5262;59.958;17.726;2023-02-11T05:34:16;-1.80;99.90
10431;DHT22;5262;59.958;17.726;2023-02-11T05:36:42;-1.80;99.90
10431;DHT22;5262;59.958;17.726;2023-02-11T05:39:08;-1.80;99.90
10431;DHT22;5262;59.958;17.726;2023-02-11T05:41:34;-1.80;99.90
10431;DHT22;5262;59.958;17.726;2023-02-11T05:43:59;-1.80;99.90
10431;DHT22;5262;59.958;17.726;2023-02-11T05:46:25;-1.80;99.90
10431;DHT22;5262;59.958;17.726;2023-02-11T05:48:50;-1.80;99.90
10431;DHT22;5262;59.958;17.726;2023-02-11T05:51:16;-1.90;99.90
10431;DHT22;5262;59.958;17.726;2023-02-11T05:53:41;-1.90;99.90
10431;DHT22;5262;59.958;17.726;2023-02-11T05:56:07;-1.90;99.90
10431;DHT22;5262;59.958;17.726;2023-02-11T05:58:34;-1.90;99.90
10431;DHT22;5262;59.958;17.726;2023-02-11T06:01:00;-1.90;99.90
10431;DHT22;5262;59.958;17.726;2023-02-11T06:03:25;-1.90;99.90
10431;DHT22;5262;59.958;17.726;2023-02-11T06:05:51;-1.90;99.90
10431;DHT22;5262;59.958;17.726;2023-02-11T06:08:17;-2.00;99.90
10431;DHT22;5262;59.958;17.726;2023-02-11T06:10:44;-2.00;99.90
10431;DHT22;5262;59.958;17.726;2023-02-11T06:13:10;-1.90;99.90
10431;DHT22;5262;59.958;17.726;2023-02-11T06:15:35;-2.00;99.90
10431;DHT22;5262;59.958;17.726;2023-02-11T06:18:01;-2.00;99.90
10431;DHT22;5262;59.958;17.726;2023-02-11T06:20:27;-1.90;99.90
10431;DHT22;5262;59.958;17.726;2023-02-11T06:22:52;-2.00;99.90
10431;DHT22;5262;59.958;17.726;2023-02-11T06:25:18;-2.00;99.90
10431;DHT22;5262;59.958;17.726;2023-02-11T06:27:43;-2.00;99.90
10431;DHT22;5262;59.958;17.726;2023-02-11T06:30:10;-1.90;99.90
10431;DHT22;5262;59.958;17.726;2023-02-11T06:32:35;-2.00;99.90
10431;DHT22;5262;59.958;17.726;2023-02-11T06:35:01;-2.00;99.90
10431;DHT22;5262;59.958;17.726;2023-02-11T06:37:26;-2.00;99.90
10431;DHT22;5262;59.958;17.726;2023-02-11T06:39:52;-2.00;99.90
10431;DHT22;5262;59.958;17.726;2023-02-11T06:42:18;-2.00;99.90
10431;DHT22;5262;59.958;17.726;2023-02-11T06:44:46;-2.00;99.90
10431;DHT22;5262;59.958;17.726;2023-02-11T06:47:12;-2.00;99.90
10431;DHT22;5262;59.958;17.726;2023-02-11T06:49:38;-2.00;99.90
10431;DHT22;5262;59.958;17.726;2023-02-11T06:52:03;-2.00;99.90
10431;DHT22;5262;59.958;17.726;2023-02-11T06:54:29;-2.00;99.90
10431;DHT22;5262;59.958;17.726;2023-02-11T06:56:54;-2.00;99.90
10431;DHT22;5262;59.958;17.726;2023-02-11T06:59:20;-2.00;99.90
10431;DHT22;5262;59.958;17.726;2023-02-11T07:01:46;-2.00;99.90
10431;DHT22;5262;59.958;17.726;2023-02-11T07:04:12;-2.00;99.90
10431;DHT22;5262;59.958;17.726;2023-02-11T07:06:39;-2.00;99.90
10431;DHT22;5262;59.958;17.726;2023-02-11T07:09:06;-2.10;99.90
10431;DHT22;5262;59.958;17.726;2023-02-11T07:11:32;-2.20;99.90
10431;DHT22;5262;59.958;17.726;2023-02-11T07:14:06;-2.20;99.90
10431;DHT22;5262;59.958;17.726;2023-02-11T07:16:35;-2.30;99.90
10431;DHT22;5262;59.958;17.726;2023-02-11T07:19:01;-2.40;99.90
10431;DHT22;5262;59.958;17.726;2023-02-11T07:21:27;-2.50;99.90
10431;DHT22;5262;59.958;17.726;2023-02-11T07:23:53;-2.50;99.90
10431;DHT22;5262;59.958;17.726;2023-02-11T07:26:20;-2.60;99.90
10431;DHT22;5262;59.958;17.726;2023-02-11T07:28:48;-2.60;99.90
10431;DHT22;5262;59.958;17.726;2023-02-11T07:31:25;-2.50;99.90
10431;DHT22;5262;59.958;17.726;2023-02-11T07:33:54;-2.40;99.90
10431;DHT22;5262;59.958;17.726;2023-02-11T07:36:21;-2.40;99.90
10431;DHT22;5262;59.958;17.726;2023-02-11T07:38:47;-2.30;99.90
10431;DHT22;5262;59.958;17.726;2023-02-11T07:41:15;-2.20;99.90
10431;DHT22;5262;59.958;17.726;2023-02-11T07:43:41;-2.20;99.90
10431;DHT22;5262;59.958;17.726;2023-02-11T07:46:12;-2.10;99.90
10431;DHT22;5262;59.958;17.726;2023-02-11T07:48:38;-2.10;99.90
10431;DHT22;5262;59.958;17.726;2023-02-11T07:51:16;-2.10;99.90
10431;DHT22;5262;59.958;17.726;2023-02-11T07:53:42;-2.10;99.90
10431;DHT22;5262;59.958;17.726;2023-02-11T07:56:09;-2.00;99.90
10431;DHT22;5262;59.958;17.726;2023-02-11T07:58:35;-2.00;99.90
10431;DHT22;5262;59.958;17.726;2023-02-11T08:01:06;-1.90;99.90
10431;DHT22;5262;59.958;17.726;2023-02-11T08:03:33;-1.90;99.90
10431;DHT22;5262;59.958;17.726;2023-02-11T08:06:11;-1.90;99.90
10431;DHT22;5262;59.958;17.726;2023-02-11T08:08:37;-1.80;99.90
10431;DHT22;5262;59.958;17.726;2023-02-11T08:11:08;-1.90;99.90
10431;DHT22;5262;59.958;17.726;2023-02-11T08:13:34;-1.90;99.90
10431;DHT22;5262;59.958;17.726;2023-02-11T08:16:00;-1.90;99.90
10431;DHT22;5262;59.958;17.726;2023-02-11T08:18:25;-1.80;99.90
10431;DHT22;5262;59.958;17.726;2023-02-11T08:20:51;-1.80;99.90
10431;DHT22;5262;59.958;17.726;2023-02-11T08:23:17;-1.80;99.90
10431;DHT22;5262;59.958;17.726;2023-02-11T08:25:42;-1.80;99.90
10431;DHT22;5262;59.958;17.726;2023-02-11T08:28:08;-1.80;99.90
10431;DHT22;5262;59.958;17.726;2023-02-11T08:30:34;-1.70;99.90
10431;DHT22;5262;59.958;17.726;2023-02-11T08:33:00;-1.70;99.90
10431;DHT22;5262;59.958;17.726;2023-02-11T08:35:26;-1.70;99.90
10431;DHT22;5262;59.958;17.726;2023-02-11T08:37:52;-1.70;99.90
10431;DHT22;5262;59.958;17.726;2023-02-11T08:40:18;-1.70;99.90
10431;DHT22;5262;59.958;17.726;2023-02-11T08:42:43;-1.70;99.90
10431;DHT22;5262;59.958;17.726;2023-02-11T08:45:09;-1.70;99.90
10431;DHT22;5262;59.958;17.726;2023-02-11T08:47:36;-1.70;99.90
10431;DHT22;5262;59.958;17.726;2023-02-11T08:50:02;-1.80;99.90
10431;DHT22;5262;59.958;17.726;2023-02-11T08:52:28;-1.80;99.90
10431;DHT22;5262;59.958;17.726;2023-02-11T08:54:53;-1.80;99.90
10431;DHT22;5262;59.958;17.726;2023-02-11T08:57:19;-1.80;99.90
10431;DHT22;5262;59.958;17.726;2023-02-11T08:59:45;-1.70;99.90
10431;DHT22;5262;59.958;17.726;2023-02-11T09:02:12;-1.70;99.90
10431;DHT22;5262;59.958;17.726;2023-02-11T09:04:38;-1.70;99.90
10431;DHT22;5262;59.958;17.726;2023-02-11T09:07:04;-1.70;99.90
10431;DHT22;5262;59.958;17.726;2023-02-11T09:09:30;-1.70;99.90
10431;DHT22;5262;59.958;17.726;2023-02-11T09:11:55;-1.60;99.90
10431;DHT22;5262;59.958;17.726;2023-02-11T09:14:23;-1.60;99.90
10431;DHT22;5262;59.958;17.726;2023-02-11T09:16:49;-1.60;99.90
10431;DHT22;5262;59.958;17.726;2023-02-11T09:19:16;-1.50;99.90
10431;DHT22;5262;59.958;17.726;2023-02-11T09:21:42;-1.50;99.90
10431;DHT22;5262;59.958;17.726;2023-02-11T09:24:08;-1.50;99.90
10431;DHT22;5262;59.958;17.726;2023-02-11T09:26:35;-1.50;99.90
10431;DHT22;5262;59.958;17.726;2023-02-11T09:29:01;-1.50;99.90
10431;DHT22;5262;59.958;17.726;2023-02-11T09:31:29;-1.60;99.90
10431;DHT22;5262;59.958;17.726;2023-02-11T09:33:58;-1.50;99.90
10431;DHT22;5262;59.958;17.726;2023-02-11T09:36:33;-1.40;99.90
10431;DHT22;5262;59.958;17.726;2023-02-11T09:39:00;-1.40;99.90
10431;DHT22;5262;59.958;17.726;2023-02-11T09:44:37;-1.10;99.90
10431;DHT22;5262;59.958;17.726;2023-02-11T09:47:20;-1.20;99.90
10431;DHT22;5262;59.958;17.726;2023-02-11T09:49:50;-1.20;99.90
10431;DHT22;5262;59.958;17.726;2023-02-11T09:52:29;-1.20;99.90
10431;DHT22;5262;59.958;17.726;2023-02-11T09:54:58;-1.20;99.90
10431;DHT22;5262;59.958;17.726;2023-02-11T09:57:31;-1.10;99.90
10431;DHT22;5262;59.958;17.726;2023-02-11T09:59:58;-1.10;99.90
10431;DHT22;5262;59.958;17.726;2023-02-11T10:02:46;-1.20;99.90
10431;DHT22;5262;59.958;17.726;2023-02-11T10:05:32;-1.10;99.90
10431;DHT22;5262;59.958;17.726;2023-02-11T10:08:15;-0.90;99.90
10431;DHT22;5262;59.958;17.726;2023-02-11T10:11:07;-0.70;99.90
10431;DHT22;5262;59.958;17.726;2023-02-11T10:13:57;-0.60;99.90
10431;DHT22;5262;59.958;17.726;2023-02-11T10:16:33;-0.50;99.90
10431;DHT22;5262;59.958;17.726;2023-02-11T10:22:00;-0.10;99.90
10431;DHT22;5262;59.958;17.726;2023-02-11T10:24:28;-0.30;99.90
10431;DHT22;5262;59.958;17.726;2023-02-11T10:26:55;-0.40;99.90
10431;DHT22;5262;59.958;17.726;2023-02-11T10:29:33;0.00;99.90
10431;DHT22;5262;59.958;17.726;2023-02-11T10:32:00;1.00;99.90
10431;DHT22;5262;59.958;17.726;2023-02-11T10:34:28;1.80;99.90
10431;DHT22;5262;59.958;17.726;2023-02-11T10:36:54;1.50;99.90
10431;DHT22;5262;59.958;17.726;2023-02-11T10:39:21;2.50;99.90
10431;DHT22;5262;59.958;17.726;2023-02-11T10:41:55;3.20;99.90
10431;DHT22;5262;59.958;17.726;2023-02-11T10:44:35;3.60;99.90
10431;DHT22;5262;59.958;17.726;2023-02-11T10:47:08;4.40;99.90
10431;DHT22;5262;59.958;17.726;2023-02-11T10:49:37;5.00;99.90
10431;DHT22;5262;59.958;17.726;2023-02-11T10:55:13;6.40;99.80
10431;DHT22;5262;59.958;17.726;2023-02-11T10:57:57;5.40;99.90
10431;DHT22;5262;59.958;17.726;2023-02-11T11:00:39;6.40;99.20
10431;DHT22;5262;59.958;17.726;2023-02-11T11:03:18;6.40;98.40
10431;DHT22;5262;59.958;17.726;2023-02-11T11:05:56;6.70;97.80
10431;DHT22;5262;59.958;17.726;2023-02-11T11:11:14;7.80;96.20
10431;DHT22;5262;59.958;17.726;2023-02-11T11:18:46;8.50;93.50
10431;DHT22;5262;59.958;17.726;2023-02-11T11:21:29;8.10;92.80
10431;DHT22;5262;59.958;17.726;2023-02-11T11:23:58;7.90;92.70
10431;DHT22;5262;59.958;17.726;2023-02-11T11:26:27;7.50;92.20
10431;DHT22;5262;59.958;17.726;2023-02-11T11:29:01;6.80;92.00
10431;DHT22;5262;59.958;17.726;2023-02-11T11:31:34;8.30;92.00
10431;DHT22;5262;59.958;17.726;2023-02-11T11:36:45;8.40;90.80
10431;DHT22;5262;59.958;17.726;2023-02-11T11:39:18;8.10;90.70
10431;DHT22;5262;59.958;17.726;2023-02-11T11:42:01;7.50;90.50
10431;DHT22;5262;59.958;17.726;2023-02-11T11:44:31;7.00;91.60
10431;DHT22;5262;59.958;17.726;2023-02-11T11:47:19;6.10;91.50
10431;DHT22;5262;59.958;17.726;2023-02-11T11:52:59;3.70;94.90
10431;DHT22;5262;59.958;17.726;2023-02-11T11:58:16;2.50;98.10
10431;DHT22;5262;59.958;17.726;2023-02-11T12:01:17;2.60;98.30
10431;DHT22;5262;59.958;17.726;2023-02-11T12:06:34;5.60;95.80
10431;DHT22;5262;59.958;17.726;2023-02-11T12:11:50;6.30;94.40
10431;DHT22;5262;59.958;17.726;2023-02-11T12:14:42;6.90;94.00
10431;DHT22;5262;59.958;17.726;2023-02-11T12:17:29;7.00;93.20
10431;DHT22;5262;59.958;17.726;2023-02-11T12:22:59;7.40;92.30
10431;DHT22;5262;59.958;17.726;2023-02-11T12:25:44;7.10;91.60
10431;DHT22;5262;59.958;17.726;2023-02-11T12:28:19;6.40;93.10
10431;DHT22;5262;59.958;17.726;2023-02-11T12:39:50;3.70;96.50
10431;DHT22;5262;59.958;17.726;2023-02-11T12:42:24;2.90;97.50
10431;DHT22;5262;59.958;17.726;2023-02-11T12:45:20;2.10;97.90
10431;DHT22;5262;59.958;17.726;2023-02-11T12:51:50;2.40;98.70
10431;DHT22;5262;59.958;17.726;2023-02-11T12:56:51;2.20;99.30
10431;DHT22;5262;59.958;17.726;2023-02-11T13:02:41;2.10;99.90
10431;DHT22;5262;59.958;17.726;2023-02-11T13:07:47;3.70;99.20
10431;DHT22;5262;59.958;17.726;2023-02-11T13:10:36;3.60;98.90
10431;DHT22;5262;59.958;17.726;2023-02-11T13:16:04;5.60;97.00
10431;DHT22;5262;59.958;17.726;2023-02-11T13:26:56;7.20;95.00
10431;DHT22;5262;59.958;17.726;2023-02-11T13:32:13;4.30;94.30
10431;DHT22;5262;59.958;17.726;2023-02-11T13:37:20;2.10;98.20
10431;DHT22;5262;59.958;17.726;2023-02-11T13:40:20;2.60;98.60
10431;DHT22;5262;59.958;17.726;2023-02-11T13:42:57;4.60;97.70
10431;DHT22;5262;59.958;17.726;2023-02-11T13:45:43;5.90;96.50
10431;DHT22;5262;59.958;17.726;2023-02-11T13:48:22;6.90;95.10
10431;DHT22;5262;59.958;17.726;2023-02-11T13:50:53;6.40;94.90
10431;DHT22;5262;59.958;17.726;2023-02-11T13:53:20;7.40;94.00
10431;DHT22;5262;59.958;17.726;2023-02-11T13:55:51;7.30;94.00
10431;DHT22;5262;59.958;17.726;2023-02-11T14:00:54;7.40;93.60
10431;DHT22;5262;59.958;17.726;2023-02-11T14:03:25;7.20;94.00
10431;DHT22;5262;59.958;17.726;2023-02-11T14:06:30;6.60;93.80
10431;DHT22;5262;59.958;17.726;2023-02-11T14:11:50;7.00;94.10
10431;DHT22;5262;59.958;17.726;2023-02-11T14:14:20;6.20;94.00
10431;DHT22;5262;59.958;17.726;2023-02-11T14:22:17;5.60;95.20
10431;DHT22;5262;59.958;17.726;2023-02-11T14:27:28;5.90;95.00
10431;DHT22;5262;59.958;17.726;2023-02-11T14:33:32;2.10;97.20
10431;DHT22;5262;59.958;17.726;2023-02-11T14:36:39;1.20;99.20
10431;DHT22;5262;59.958;17.726;2023-02-11T14:41:48;0.20;99.90
10431;DHT22;5262;59.958;17.726;2023-02-11T14:44:19;-0.10;99.90
10431;DHT22;5262;59.958;17.726;2023-02-11T14:46:47;-0.40;99.90
10431;DHT22;5262;59.958;17.726;2023-02-11T14:49:32;-0.50;99.90
10431;DHT22;5262;59.958;17.726;2023-02-11T14:52:07;-0.70;99.90
10431;DHT22;5262;59.958;17.726;2023-02-11T14:54:39;-0.80;99.90
10431;DHT22;5262;59.958;17.726;2023-02-11T14:57:12;-0.90;99.90
10431;DHT22;5262;59.958;17.726;2023-02-11T14:59:53;-1.00;99.90
10431;DHT22;5262;59.958;17.726;2023-02-11T15:02:21;-1.20;99.90
10431;DHT22;5262;59.958;17.726;2023-02-11T15:04:47;-1.30;99.90
10431;DHT22;5262;59.958;17.726;2023-02-11T15:07:13;-1.50;99.90
10431;DHT22;5262;59.958;17.726;2023-02-11T15:09:44;-1.70;99.90
10431;DHT22;5262;59.958;17.726;2023-02-11T15:12:30;-1.80;99.90
10431;DHT22;5262;59.958;17.726;2023-02-11T15:14:57;-2.00;99.90
10431;DHT22;5262;59.958;17.726;2023-02-11T15:17:26;-2.10;99.90
10431;DHT22;5262;59.958;17.726;2023-02-11T15:19:56;-2.20;99.90
10431;DHT22;5262;59.958;17.726;2023-02-11T15:22:26;-2.30;99.90
10431;DHT22;5262;59.958;17.726;2023-02-11T15:24:59;-2.50;99.90
10431;DHT22;5262;59.958;17.726;2023-02-11T15:27:26;-2.70;99.90
10431;DHT22;5262;59.958;17.726;2023-02-11T15:29:51;-2.80;99.90
10431;DHT22;5262;59.958;17.726;2023-02-11T15:32:20;-2.90;99.90
10431;DHT22;5262;59.958;17.726;2023-02-11T15:34:48;-3.10;99.90
10431;DHT22;5262;59.958;17.726;2023-02-11T15:37:23;-3.20;99.90
10431;DHT22;5262;59.958;17.726;2023-02-11T15:39:49;-3.30;99.90
10431;DHT22;5262;59.958;17.726;2023-02-11T15:44:41;-3.50;99.90
10431;DHT22;5262;59.958;17.726;2023-02-11T15:47:11;-3.60;99.90
10431;DHT22;5262;59.958;17.726;2023-02-11T15:49:44;-3.70;99.90
10431;DHT22;5262;59.958;17.726;2023-02-11T15:52:11;-3.90;99.90
10431;DHT22;5262;59.958;17.726;2023-02-11T15:54:38;-4.00;99.90
10431;DHT22;5262;59.958;17.726;2023-02-11T15:57:07;-4.10;99.90
10431;DHT22;5262;59.958;17.726;2023-02-11T15:59:40;-4.20;99.90
10431;DHT22;5262;59.958;17.726;2023-02-11T16:02:19;-4.30;99.90
10431;DHT22;5262;59.958;17.726;2023-02-11T16:04:55;-4.30;99.90
10431;DHT22;5262;59.958;17.726;2023-02-11T16:07:48;-4.40;99.90
10431;DHT22;5262;59.958;17.726;2023-02-11T16:10:30;-4.50;99.90
10431;DHT22;5262;59.958;17.726;2023-02-11T16:18:12;-4.60;99.90
10431;DHT22;5262;59.958;17.726;2023-02-11T16:20:38;-4.70;99.90
10431;DHT22;5262;59.958;17.726;2023-02-11T16:23:05;-4.70;99.90
10431;DHT22;5262;59.958;17.726;2023-02-11T16:25:34;-4.80;99.90
10431;DHT22;5262;59.958;17.726;2023-02-11T16:28:00;-4.80;99.90
10431;DHT22;5262;59.958;17.726;2023-02-11T16:30:34;-5.00;99.90
10431;DHT22;5262;59.958;17.726;2023-02-11T16:33:02;-5.00;99.90
10431;DHT22;5262;59.958;17.726;2023-02-11T16:35:29;-5.00;99.90
10431;DHT22;5262;59.958;17.726;2023-02-11T16:37:54;-5.10;99.90
10431;DHT22;5262;59.958;17.726;2023-02-11T16:40:20;-5.10;99.90
10431;DHT22;5262;59.958;17.726;2023-02-11T16:42:48;-5.10;99.90
10431;DHT22;5262;59.958;17.726;2023-02-11T16:45:14;-5.20;99.90
10431;DHT22;5262;59.958;17.726;2023-02-11T16:47:41;-5.20;99.90
10431;DHT22;5262;59.958;17.726;2023-02-11T16:50:10;-5.30;99.90
10431;DHT22;5262;59.958;17.726;2023-02-11T16:52:36;-5.40;99.90
10431;DHT22;5262;59.958;17.726;2023-02-11T16:55:03;-5.40;99.90
10431;DHT22;5262;59.958;17.726;2023-02-11T16:57:30;-5.40;99.90
10431;DHT22;5262;59.958;17.726;2023-02-11T16:59:56;-5.50;99.90
10431;DHT22;5262;59.958;17.726;2023-02-11T17:02:30;-5.50;99.90
10431;DHT22;5262;59.958;17.726;2023-02-11T17:04:58;-5.60;99.90
10431;DHT22;5262;59.958;17.726;2023-02-11T17:07:25;-5.60;99.90
10431;DHT22;5262;59.958;17.726;2023-02-11T17:09:51;-5.60;99.90
10431;DHT22;5262;59.958;17.726;2023-02-11T17:12:17;-5.70;99.90
10431;DHT22;5262;59.958;17.726;2023-02-11T17:14:43;-5.80;99.90
10431;DHT22;5262;59.958;17.726;2023-02-11T17:17:09;-5.80;99.90
10431;DHT22;5262;59.958;17.726;2023-02-11T17:19:35;-5.90;99.90
10431;DHT22;5262;59.958;17.726;2023-02-11T17:22:02;-5.90;99.90
10431;DHT22;5262;59.958;17.726;2023-02-11T17:24:28;-5.90;99.90
10431;DHT22;5262;59.958;17.726;2023-02-11T17:26:54;-6.00;99.90
10431;DHT22;5262;59.958;17.726;2023-02-11T17:29:21;-5.90;99.90
10431;DHT22;5262;59.958;17.726;2023-02-11T17:31:48;-5.90;99.90
10431;DHT22;5262;59.958;17.726;2023-02-11T17:34:13;-5.90;99.90
10431;DHT22;5262;59.958;17.726;2023-02-11T17:36:39;-6.00;99.90
10431;DHT22;5262;59.958;17.726;2023-02-11T17:39:07;-6.00;99.90
10431;DHT22;5262;59.958;17.726;2023-02-11T17:41:34;-6.10;99.90
10431;DHT22;5262;59.958;17.726;2023-02-11T17:44:00;-6.10;99.90
10431;DHT22;5262;59.958;17.726;2023-02-11T17:46:26;-6.10;99.90
10431;DHT22;5262;59.958;17.726;2023-02-11T17:48:57;-6.20;99.90
10431;DHT22;5262;59.958;17.726;2023-02-11T17:51:27;-6.20;99.90
10431;DHT22;5262;59.958;17.726;2023-02-11T17:53:57;-6.30;99.90
10431;DHT22;5262;59.958;17.726;2023-02-11T17:56:23;-6.30;99.90
10431;DHT22;5262;59.958;17.726;2023-02-11T17:58:49;-6.30;99.90
10431;DHT22;5262;59.958;17.726;2023-02-11T18:01:15;-6.40;99.90
10431;DHT22;5262;59.958;17.726;2023-02-11T18:03:40;-6.40;99.90
10431;DHT22;5262;59.958;17.726;2023-02-11T18:06:06;-6.50;99.90
10431;DHT22;5262;59.958;17.726;2023-02-11T18:08:33;-6.50;99.90